Time;durP1;ratioP1;P1;durP2;ratioP2;P2;SDS_P1;SDS_P2;PMS_P1;PMS_P2;Temp;Humidity;BMP_temperature;BMP_pressure;BME280_temperature;BME280_humidity;BME280_pressure;Samples;Min_cycle;Max_cycle;Signal;HPM_P1;HPM_P2
2023/08/23 00:02:25;;;;;;;7.13;5.10;;;18.00;99.90;;;;;;5052742;28;20443;-64
2023/08/23 00:04:52;;;;;;;8.00;5.60;;;18.00;99.90;;;;;;5053101;28;20443;-65
2023/08/23 00:07:19;;;;;;;6.33;5.70;;;17.90;99.90;;;;;;5053356;28;20460;-64
2023/08/23 00:09:46;;;;;;;6.30;5.70;;;17.90;99.90;;;;;;5053145;28;20522;-63
2023/08/23 00:12:13;;;;;;;7.97;6.20;;;17.90;99.90;;;;;;5053176;28;20444;-65
2023/08/23 00:14:39;;;;;;;8.83;5.87;;;17.90;99.90;;;;;;5053278;28;20806;-65
2023/08/23 00:17:06;;;;;;;5.77;5.00;;;17.80;99.90;;;;;;5052976;28;20518;-64
2023/08/23 00:19:34;;;;;;;6.97;5.93;;;17.80;99.90;;;;;;5052897;28;20819;-64
2023/08/23 00:22:02;;;;;;;12.23;6.10;;;17.80;99.90;;;;;;5053150;28;20444;-64
2023/08/23 00:24:29;;;;;;;7.47;6.20;;;17.80;99.90;;;;;;5053205;28;20471;-64
2023/08/23 00:26:56;;;;;;;7.00;6.40;;;17.80;99.90;;;;;;5056313;28;20462;-64
2023/08/23 00:29:23;;;;;;;7.07;6.37;;;17.80;99.90;;;;;;5062332;28;20458;-65
2023/08/23 00:31:49;;;;;;;10.63;6.90;;;17.80;99.90;;;;;;5062676;28;20436;-64
2023/08/23 00:34:16;;;;;;;9.20;7.07;;;17.80;99.90;;;;;;5062539;28;20439;-64
2023/08/23 00:36:45;;;;;;;8.20;7.00;;;17.80;99.90;;;;;;5060317;28;20486;-63
2023/08/23 00:39:12;;;;;;;7.47;6.70;;;17.80;99.90;;;;;;5061690;28;20817;-63
2023/08/23 00:41:39;;;;;;;16.77;6.87;;;17.70;99.90;;;;;;5056880;28;20444;-63
2023/08/23 00:44:05;;;;;;;8.03;6.63;;;17.70;99.90;;;;;;5056893;28;20446;-64
2023/08/23 00:46:32;;;;;;;8.47;7.43;;;17.70;99.90;;;;;;5056339;28;20969;-63
2023/08/23 00:48:59;;;;;;;11.10;7.43;;;17.70;99.90;;;;;;5056597;28;20440;-64
2023/08/23 00:51:26;;;;;;;9.40;7.47;;;17.70;99.90;;;;;;5056649;28;20440;-62
2023/08/23 00:53:54;;;;;;;8.73;7.67;;;17.70;99.90;;;;;;5056553;28;20440;-64
2023/08/23 00:58:49;;;;;;;9.90;7.93;;;17.80;99.90;;;;;;5055840;28;20501;-60
2023/08/23 01:01:16;;;;;;;8.80;7.90;;;17.90;99.90;;;;;;5057205;28;20436;-59
2023/08/23 01:03:42;;;;;;;10.53;8.03;;;17.90;99.90;;;;;;5056843;28;20451;-60
2023/08/23 01:06:24;;;;;;;8.00;7.20;;;17.90;99.90;;;;;;5056547;28;20435;-60
2023/08/23 01:09:08;;;;;;;10.00;8.30;;;18.00;99.90;;;;;;5036660;28;20439;-60
2023/08/23 01:11:44;;;;;;;10.80;8.20;;;17.90;99.90;;;;;;5036570;28;20785;-60
2023/08/23 01:14:17;;;;;;;9.37;8.47;;;17.90;99.90;;;;;;5036552;28;20421;-59
2023/08/23 01:16:47;;;;;;;9.03;7.70;;;17.90;99.90;;;;;;5036086;28;20866;-59
2023/08/23 01:19:39;;;;;;;8.77;7.87;;;17.90;99.90;;;;;;5036542;28;20436;-59
2023/08/23 01:22:09;;;;;;;11.10;7.90;;;17.80;99.90;;;;;;5036520;28;20437;-60
2023/08/23 01:24:37;;;;;;;8.83;7.77;;;17.80;99.90;;;;;;5035975;28;20444;-59
2023/08/23 01:27:04;;;;;;;11.40;8.20;;;17.70;99.90;;;;;;5035904;28;20983;-60
2023/08/23 01:29:31;;;;;;;8.93;7.63;;;17.70;99.90;;;;;;5036116;28;20447;-59
2023/08/23 01:32:05;;;;;;;11.57;7.37;;;17.60;99.90;;;;;;5036062;28;20456;-60
2023/08/23 01:34:37;;;;;;;9.40;8.20;;;17.60;99.90;;;;;;5036241;28;20420;-60
2023/08/23 01:37:06;;;;;;;10.90;8.90;;;17.60;99.90;;;;;;5036114;28;20492;-60
2023/08/23 01:39:34;;;;;;;9.30;8.37;;;17.60;99.90;;;;;;5035304;28;20441;-60
2023/08/23 01:42:02;;;;;;;9.10;8.30;;;17.50;99.90;;;;;;5035742;28;20939;-60
2023/08/23 01:44:29;;;;;;;10.20;8.50;;;17.50;99.90;;;;;;5038663;28;20452;-60
2023/08/23 01:46:56;;;;;;;10.67;9.20;;;17.50;99.90;;;;;;5040948;28;20479;-59
2023/08/23 01:49:23;;;;;;;9.40;8.40;;;17.40;99.90;;;;;;5037906;28;20947;-59
2023/08/23 01:51:49;;;;;;;10.77;9.37;;;17.40;99.90;;;;;;5037049;28;20471;-59
2023/08/23 01:54:16;;;;;;;11.27;8.80;;;17.30;99.90;;;;;;5036131;28;20953;-60
2023/08/23 01:56:43;;;;;;;10.63;9.57;;;17.30;99.90;;;;;;5035681;28;20468;-61
2023/08/23 01:59:11;;;;;;;10.60;8.90;;;17.30;99.90;;;;;;5035946;28;20426;-61
2023/08/23 02:01:38;;;;;;;9.87;8.87;;;17.20;99.90;;;;;;5035919;28;20441;-61
2023/08/23 02:04:05;;;;;;;11.17;8.63;;;17.20;99.90;;;;;;5035836;28;20472;-60
2023/08/23 02:06:31;;;;;;;13.07;9.50;;;17.20;99.90;;;;;;5035626;28;20449;-61
2023/08/23 02:08:58;;;;;;;9.90;8.63;;;17.10;99.90;;;;;;5035209;28;20947;-60
2023/08/23 02:11:25;;;;;;;9.20;8.30;;;17.10;99.90;;;;;;5035426;28;20448;-60
2023/08/23 02:13:52;;;;;;;10.23;8.57;;;17.00;99.90;;;;;;5035302;28;20468;-60
2023/08/23 02:16:20;;;;;;;11.97;8.10;;;17.00;99.90;;;;;;5034845;28;20947;-60
2023/08/23 02:18:46;;;;;;;10.80;8.53;;;16.90;99.90;;;;;;5035166;28;20477;-60
2023/08/23 02:21:13;;;;;;;11.97;9.30;;;16.90;99.90;;;;;;5035324;28;20449;-60
2023/08/23 02:23:40;;;;;;;9.43;8.50;;;16.80;99.90;;;;;;5035045;28;20437;-60
2023/08/23 02:26:06;;;;;;;10.80;9.13;;;16.80;99.90;;;;;;5035014;28;20452;-60
2023/08/23 02:28:33;;;;;;;11.03;9.10;;;16.70;99.90;;;;;;5034844;28;20457;-59
2023/08/23 02:31:03;;;;;;;9.47;8.40;;;16.70;99.90;;;;;;5034593;28;20982;-60
2023/08/23 02:33:31;;;;;;;17.57;10.37;;;16.60;99.90;;;;;;5034670;28;20536;-60
2023/08/23 02:35:58;;;;;;;11.00;8.77;;;16.60;99.90;;;;;;5034918;28;20445;-60
2023/08/23 02:38:25;;;;;;;12.57;10.67;;;16.60;99.90;;;;;;5034382;28;20480;-60
2023/08/23 02:40:52;;;;;;;13.90;10.70;;;16.50;99.90;;;;;;5034619;28;20437;-59
2023/08/23 02:43:19;;;;;;;12.80;10.50;;;16.50;99.90;;;;;;5034752;28;20460;-59
2023/08/23 02:45:45;;;;;;;11.37;9.80;;;16.50;99.90;;;;;;5034667;28;20536;-60
2023/08/23 02:48:12;;;;;;;11.80;10.13;;;16.40;99.90;;;;;;5034422;28;20823;-61
2023/08/23 02:50:42;;;;;;;12.73;10.33;;;16.40;99.90;;;;;;5033509;28;20543;-60
2023/08/23 02:53:10;;;;;;;13.23;11.43;;;16.40;99.90;;;;;;5034422;28;20481;-60
2023/08/23 02:55:37;;;;;;;12.40;11.20;;;16.40;99.90;;;;;;5034454;28;20444;-60
2023/08/23 02:58:05;;;;;;;11.83;9.83;;;16.40;99.90;;;;;;5034007;28;20495;-60
2023/08/23 03:00:32;;;;;;;10.97;9.80;;;16.40;99.90;;;;;;5034308;28;20441;-59
2023/08/23 03:02:58;;;;;;;11.70;10.50;;;16.50;99.90;;;;;;5034208;28;20441;-60
2023/08/23 03:05:25;;;;;;;10.60;9.50;;;16.40;99.90;;;;;;5033937;28;20444;-61
2023/08/23 03:07:53;;;;;;;13.70;11.67;;;16.40;99.90;;;;;;5033949;28;20464;-60
2023/08/23 03:10:21;;;;;;;18.13;10.43;;;16.40;99.90;;;;;;5034144;28;20437;-60
2023/08/23 03:12:48;;;;;;;15.07;8.73;;;16.30;99.90;;;;;;5033694;28;20940;-60
2023/08/23 03:15:15;;;;;;;13.07;9.80;;;16.30;99.90;;;;;;5034070;28;20448;-60
2023/08/23 03:17:42;;;;;;;10.80;9.70;;;16.30;99.90;;;;;;5034026;28;20485;-60
2023/08/23 03:20:09;;;;;;;12.40;9.07;;;16.20;99.90;;;;;;5034166;28;20452;-60
2023/08/23 03:22:35;;;;;;;11.30;9.77;;;16.20;99.90;;;;;;5034076;28;20453;-60
2023/08/23 03:25:04;;;;;;;11.53;10.07;;;16.20;99.90;;;;;;5033736;28;20884;-59
2023/08/23 03:27:31;;;;;;;11.40;10.20;;;16.10;99.90;;;;;;5033816;28;20468;-60
2023/08/23 03:29:57;;;;;;;13.33;10.43;;;16.10;99.90;;;;;;5033546;28;20441;-60
2023/08/23 03:32:24;;;;;;;13.40;10.67;;;16.00;99.90;;;;;;5033892;28;20515;-60
2023/08/23 03:34:51;;;;;;;13.60;10.00;;;16.00;99.90;;;;;;5033826;28;20448;-60
2023/08/23 03:37:17;;;;;;;12.73;10.87;;;15.90;99.90;;;;;;5033550;28;20465;-60
2023/08/23 03:39:44;;;;;;;13.97;12.50;;;15.90;99.90;;;;;;5034603;28;20447;-61
2023/08/23 03:42:12;;;;;;;15.63;11.40;;;15.90;99.90;;;;;;5033499;28;20949;-60
2023/08/23 03:44:39;;;;;;;12.90;10.93;;;15.90;99.90;;;;;;5033486;28;20515;-60
2023/08/23 03:47:06;;;;;;;15.53;11.27;;;15.90;99.90;;;;;;5034056;28;20461;-59
2023/08/23 03:49:32;;;;;;;14.10;11.10;;;15.80;99.90;;;;;;5034187;28;20448;-59
2023/08/23 03:51:59;;;;;;;14.57;12.00;;;15.80;99.90;;;;;;5033348;28;20453;-60
2023/08/23 03:54:26;;;;;;;11.77;10.53;;;15.80;99.90;;;;;;5033129;28;20816;-59
2023/08/23 03:56:53;;;;;;;12.77;11.47;;;15.80;99.90;;;;;;5032942;28;20480;-60
2023/08/23 03:59:21;;;;;;;11.93;10.70;;;15.80;99.90;;;;;;5033021;28;20480;-60
2023/08/23 04:01:47;;;;;;;18.13;11.77;;;15.80;99.90;;;;;;5033427;28;20444;-60
2023/08/23 04:04:14;;;;;;;17.27;11.57;;;15.80;99.90;;;;;;5033052;28;20445;-59
2023/08/23 04:06:41;;;;;;;14.13;11.33;;;15.80;99.90;;;;;;5033206;28;21028;-59
2023/08/23 04:12:08;;;;;;;14.87;11.90;;;15.80;99.90;;;;;;5091358;28;20615;-60
2023/08/23 04:14:35;;;;;;;14.70;12.60;;;15.80;99.90;;;;;;5091183;28;20958;-60
2023/08/23 04:17:02;;;;;;;15.07;13.57;;;15.70;99.90;;;;;;5091555;28;20505;-60
2023/08/23 04:19:29;;;;;;;17.40;12.80;;;15.70;99.90;;;;;;5090746;28;20999;-61
2023/08/23 04:21:56;;;;;;;14.20;12.60;;;15.70;99.90;;;;;;5090924;28;20811;-60
2023/08/23 04:24:23;;;;;;;14.57;12.97;;;15.70;99.90;;;;;;5090959;28;20488;-60
2023/08/23 04:26:49;;;;;;;13.67;12.23;;;15.70;99.90;;;;;;5090819;28;20461;-60
2023/08/23 04:29:17;;;;;;;16.57;14.23;;;15.70;99.90;;;;;;5090775;28;20449;-59
2023/08/23 04:31:44;;;;;;;15.73;13.83;;;15.70;99.90;;;;;;5090835;28;20474;-60
2023/08/23 04:34:11;;;;;;;20.13;13.80;;;15.80;99.90;;;;;;5090549;28;20450;-59
2023/08/23 04:36:38;;;;;;;15.57;13.43;;;15.80;99.90;;;;;;5090396;28;20857;-59
2023/08/23 04:39:04;;;;;;;13.70;12.23;;;15.90;99.90;;;;;;5090704;28;20438;-60
2023/08/23 04:41:31;;;;;;;15.40;13.80;;;16.00;99.90;;;;;;5090889;28;20439;-60
2023/08/23 04:43:58;;;;;;;13.07;11.87;;;16.10;99.90;;;;;;5090521;28;20438;-60
2023/08/23 04:46:26;;;;;;;14.23;12.60;;;16.20;99.90;;;;;;5089700;28;20446;-60
2023/08/23 04:48:53;;;;;;;16.97;10.83;;;16.40;99.90;;;;;;5091144;28;20442;-60
2023/08/23 04:51:19;;;;;;;16.23;12.30;;;16.50;99.90;;;;;;5090369;28;20587;-59
2023/08/23 04:53:46;;;;;;;13.27;11.57;;;16.70;99.90;;;;;;5090772;28;20940;-60
2023/08/23 04:56:13;;;;;;;13.50;11.73;;;16.90;99.90;;;;;;5091682;28;20449;-59
2023/08/23 04:58:40;;;;;;;13.67;11.20;;;17.00;99.90;;;;;;5091628;28;20462;-60
2023/08/23 05:01:07;;;;;;;12.93;10.90;;;17.10;99.90;;;;;;5091529;28;20441;-61
2023/08/23 05:03:36;;;;;;;12.80;9.87;;;17.30;99.90;;;;;;5091385;28;20826;-60
2023/08/23 05:06:03;;;;;;;12.33;11.13;;;17.40;99.90;;;;;;5090930;28;20438;-61
2023/08/23 05:08:31;;;;;;;10.83;9.73;;;17.50;99.90;;;;;;5090765;28;20465;-60
2023/08/23 05:10:58;;;;;;;16.63;10.80;;;17.60;99.90;;;;;;5091761;28;21038;-59
2023/08/23 05:13:24;;;;;;;11.37;10.27;;;17.70;99.90;;;;;;5090091;28;20596;-61
2023/08/23 05:15:52;;;;;;;14.20;9.70;;;17.90;99.90;;;;;;5093286;28;20449;-60
2023/08/23 05:18:22;;;;;;;11.13;9.47;;;17.90;99.90;;;;;;5092493;28;20485;-60
2023/08/23 05:20:55;;;;;;;11.17;9.97;;;17.90;99.90;;;;;;5093322;28;20419;-60
2023/08/23 05:23:22;;;;;;;10.43;9.33;;;18.00;99.90;;;;;;5079140;28;20806;-60
2023/08/23 05:25:50;;;;;;;11.40;10.20;;;18.10;99.90;;;;;;5077644;28;20443;-60
2023/08/23 05:28:18;;;;;;;11.77;10.47;;;18.30;99.90;;;;;;5077604;28;20498;-62
2023/08/23 05:30:44;;;;;;;11.50;10.30;;;18.40;99.90;;;;;;5077124;28;20475;-60
2023/08/23 05:33:11;;;;;;;12.80;9.53;;;18.50;99.90;;;;;;5077452;28;20439;-60
2023/08/23 05:35:38;;;;;;;13.83;8.50;;;18.50;99.90;;;;;;5078416;28;20804;-59
2023/08/23 05:38:06;;;;;;;10.60;9.57;;;18.50;99.90;;;;;;5077455;28;20455;-61
2023/08/23 05:40:33;;;;;;;11.23;10.03;;;18.50;99.90;;;;;;5076431;28;20462;-62
2023/08/23 05:43:00;;;;;;;11.50;10.33;;;18.50;99.90;;;;;;5075969;28;20785;-60
2023/08/23 05:45:26;;;;;;;11.90;10.70;;;18.50;99.90;;;;;;5077294;28;20457;-60
2023/08/23 05:47:54;;;;;;;12.27;10.07;;;18.60;99.90;;;;;;5076239;28;20463;-59
2023/08/23 05:50:21;;;;;;;12.30;10.37;;;18.60;99.90;;;;;;5077930;28;20488;-60
2023/08/23 05:52:48;;;;;;;11.33;9.77;;;18.60;99.90;;;;;;5076045;28;20485;-61
2023/08/23 05:55:16;;;;;;;15.40;10.20;;;18.70;99.90;;;;;;5077624;28;20438;-61
2023/08/23 05:57:43;;;;;;;13.83;10.00;;;18.80;99.90;;;;;;5075875;28;20459;-60
2023/08/23 06:00:11;;;;;;;13.10;9.27;;;18.80;99.90;;;;;;5076717;28;20822;-61
2023/08/23 06:02:37;;;;;;;13.00;8.83;;;18.90;99.90;;;;;;5077072;28;20469;-59
2023/08/23 06:05:05;;;;;;;12.63;8.40;;;19.00;99.90;;;;;;5076131;28;20475;-58
2023/08/23 06:07:32;;;;;;;11.30;8.87;;;19.10;99.90;;;;;;5075979;28;21082;-61
2023/08/23 06:09:59;;;;;;;12.80;8.77;;;19.20;99.90;;;;;;5076297;28;20454;-64
2023/08/23 06:12:27;;;;;;;10.17;8.43;;;19.30;99.90;;;;;;5075667;28;20466;-60
2023/08/23 06:14:54;;;;;;;15.33;9.70;;;19.50;99.90;;;;;;5076400;28;20443;-60
2023/08/23 06:17:21;;;;;;;12.70;8.70;;;19.70;99.90;;;;;;5075355;28;20455;-60
2023/08/23 06:19:47;;;;;;;10.33;8.00;;;19.80;99.90;;;;;;5075699;28;20435;-61
2023/08/23 06:22:14;;;;;;;14.13;7.43;;;20.00;99.90;;;;;;5082331;28;20446;-60
2023/08/23 06:24:41;;;;;;;14.80;8.70;;;20.20;99.90;;;;;;5085257;28;20439;-60
2023/08/23 06:27:08;;;;;;;13.23;8.63;;;20.40;99.90;;;;;;5083427;28;21000;-59
2023/08/23 06:29:39;;;;;;;15.50;8.47;;;20.70;99.90;;;;;;5083387;28;20443;-59
2023/08/23 06:32:07;;;;;;;9.50;8.17;;;21.00;99.90;;;;;;5082849;28;20467;-60
2023/08/23 06:34:34;;;;;;;12.80;9.07;;;21.10;99.90;;;;;;5080046;28;20447;-60
2023/08/23 06:37:01;;;;;;;10.90;8.37;;;21.10;99.90;;;;;;5083211;28;20455;-60
2023/08/23 06:39:27;;;;;;;10.20;8.63;;;21.10;99.90;;;;;;5082588;28;20443;-60
2023/08/23 06:41:54;;;;;;;12.90;9.50;;;21.10;99.90;;;;;;5081578;28;20807;-60
2023/08/23 06:44:21;;;;;;;14.13;10.27;;;21.10;99.90;;;;;;5081648;28;20453;-60
2023/08/23 06:46:49;;;;;;;12.53;9.43;;;21.00;99.90;;;;;;5083189;28;20555;-59
2023/08/23 06:49:16;;;;;;;14.20;10.43;;;21.10;99.90;;;;;;5083931;28;20438;-61
2023/08/23 06:51:42;;;;;;;14.77;9.13;;;21.10;99.90;;;;;;5083514;28;20485;-60
2023/08/23 06:54:09;;;;;;;10.00;8.27;;;21.10;99.90;;;;;;5081866;28;20945;-59
2023/08/23 06:56:36;;;;;;;17.23;8.80;;;21.10;99.90;;;;;;5083182;28;20446;-62
2023/08/23 06:59:03;;;;;;;10.63;8.63;;;21.20;99.90;;;;;;5081105;28;20969;-62
2023/08/23 07:01:29;;;;;;;13.40;8.37;;;21.30;99.90;;;;;;5076276;28;20435;-60
2023/08/23 07:03:58;;;;;;;12.10;8.33;;;21.40;99.90;;;;;;5076068;28;20488;-61
2023/08/23 07:06:24;;;;;;;11.10;8.80;;;21.50;99.90;;;;;;5075066;28;20470;-60
2023/08/23 07:08:51;;;;;;;14.27;8.80;;;21.60;99.90;;;;;;5075193;28;20439;-61
2023/08/23 07:11:18;;;;;;;12.00;8.30;;;21.70;99.90;;;;;;5074536;28;20493;-60
2023/08/23 07:13:44;;;;;;;12.10;8.20;;;21.80;99.90;;;;;;5075085;28;20517;-60
2023/08/23 07:16:11;;;;;;;12.53;8.20;;;21.80;99.90;;;;;;5075288;28;20450;-61
2023/08/23 07:18:38;;;;;;;10.80;8.13;;;22.00;99.90;;;;;;5075328;28;20972;-61
2023/08/23 07:21:06;;;;;;;17.33;8.83;;;22.10;99.90;;;;;;5075177;28;20439;-61
2023/08/23 07:23:33;;;;;;;10.00;7.57;;;22.30;99.90;;;;;;5075133;28;20928;-62
2023/08/23 07:26:02;;;;;;;9.00;8.10;;;22.50;99.90;;;;;;5076150;28;20439;-61
2023/08/23 07:28:29;;;;;;;15.23;9.30;;;22.60;99.90;;;;;;5075299;28;20542;-62
2023/08/23 07:30:57;;;;;;;13.20;9.20;;;22.60;99.90;;;;;;5075069;28;20446;-62
2023/08/23 07:33:24;;;;;;;11.90;9.10;;;22.50;99.90;;;;;;5081671;22;20541;-63
2023/08/23 07:35:56;;;;;;;12.57;8.47;;;22.50;99.90;;;;;;5053566;28;20436;-63
2023/08/23 07:38:24;;;;;;;12.27;8.77;;;22.50;99.60;;;;;;5053580;28;20405;-62
2023/08/23 07:40:51;;;;;;;14.83;9.67;;;22.50;99.40;;;;;;5053227;28;20506;-63
2023/08/23 07:43:17;;;;;;;13.70;8.80;;;22.60;99.20;;;;;;5053271;28;20456;-62
2023/08/23 07:45:44;;;;;;;16.57;9.17;;;22.60;98.80;;;;;;5052520;28;20444;-63
2023/08/23 07:48:11;;;;;;;16.60;9.20;;;22.50;98.40;;;;;;5052965;28;20440;-64
2023/08/23 07:50:38;;;;;;;10.03;8.40;;;22.50;98.50;;;;;;5052757;28;20436;-63
2023/08/23 07:53:05;;;;;;;9.80;8.43;;;22.50;98.30;;;;;;5052627;28;20487;-63
2023/08/23 07:55:33;;;;;;;12.77;8.73;;;22.40;98.20;;;;;;5053795;28;20518;-63
2023/08/23 07:58:00;;;;;;;13.17;8.90;;;22.40;98.20;;;;;;5052784;28;20770;-63
2023/08/23 08:00:27;;;;;;;9.20;7.17;;;22.40;97.90;;;;;;5052856;28;20542;-62
2023/08/23 08:02:54;;;;;;;16.43;10.23;;;22.40;97.60;;;;;;5052569;28;20460;-64
2023/08/23 08:05:21;;;;;;;8.70;7.90;;;22.40;97.20;;;;;;5052524;28;20956;-63
2023/08/23 08:07:47;;;;;;;10.20;7.53;;;22.40;97.00;;;;;;5052933;28;20538;-63
2023/08/23 08:10:14;;;;;;;12.13;8.97;;;22.50;97.10;;;;;;5053357;28;20459;-62
2023/08/23 08:12:42;;;;;;;12.83;8.40;;;22.70;97.10;;;;;;5052435;28;20480;-63
2023/08/23 08:15:10;;;;;;;9.13;8.17;;;22.80;96.40;;;;;;5052985;28;20447;-63
2023/08/23 08:17:37;;;;;;;9.50;8.10;;;22.90;96.30;;;;;;5052741;28;20537;-63
2023/08/23 08:20:06;;;;;;;9.43;7.53;;;22.90;95.60;;;;;;5052624;28;20444;-62
2023/08/23 08:22:33;;;;;;;10.13;7.37;;;22.90;95.40;;;;;;5052508;28;20440;-62
2023/08/23 08:25:00;;;;;;;13.47;8.83;;;22.90;95.50;;;;;;5052669;28;20447;-64
2023/08/23 08:27:27;;;;;;;10.07;7.77;;;22.90;95.60;;;;;;5052814;28;20440;-64
2023/08/23 08:29:55;;;;;;;10.10;7.20;;;22.80;95.80;;;;;;5053561;28;20503;-64
2023/08/23 08:32:21;;;;;;;14.00;6.70;;;22.90;96.20;;;;;;5052785;28;20475;-64
2023/08/23 08:34:48;;;;;;;6.87;6.23;;;23.20;95.90;;;;;;5052640;28;20478;-63
2023/08/23 08:37:16;;;;;;;11.33;6.43;;;23.50;94.80;;;;;;5052734;28;20444;-63
2023/08/23 08:39:42;;;;;;;8.00;5.80;;;23.80;93.20;;;;;;5052624;28;20446;-63
2023/08/23 08:42:11;;;;;;;8.87;5.10;;;24.00;92.00;;;;;;5052618;28;20436;-63
2023/08/23 08:44:37;;;;;;;7.90;5.93;;;24.30;90.80;;;;;;5052606;28;20833;-62
2023/08/23 08:47:08;;;;;;;9.07;6.07;;;24.40;88.50;;;;;;5052701;28;20466;-64
2023/08/23 08:49:34;;;;;;;7.53;5.40;;;24.50;87.00;;;;;;5052373;28;20447;-65
2023/08/23 08:52:04;;;;;;;8.03;5.63;;;24.60;85.60;;;;;;5052371;28;20849;-63
2023/08/23 08:54:34;;;;;;;9.60;6.53;;;24.80;83.40;;;;;;5052639;28;20464;-65
2023/08/23 08:57:02;;;;;;;7.20;5.67;;;24.70;81.10;;;;;;5054103;28;20448;-65
2023/08/23 08:59:29;;;;;;;7.10;5.93;;;24.40;80.60;;;;;;5057401;28;20451;-66
2023/08/23 09:01:58;;;;;;;8.30;6.30;;;24.30;81.00;;;;;;5056490;28;20428;-64
2023/08/23 09:04:26;;;;;;;9.00;6.80;;;24.30;80.70;;;;;;5056541;28;20551;-65
2023/08/23 09:06:54;;;;;;;8.47;7.00;;;24.40;80.10;;;;;;5056090;28;20448;-65
2023/08/23 09:09:21;;;;;;;8.93;7.20;;;24.40;79.20;;;;;;5056038;28;20444;-64
2023/08/23 09:11:48;;;;;;;9.17;5.93;;;24.40;79.30;;;;;;5055922;28;20480;-64
2023/08/23 09:14:16;;;;;;;8.57;6.50;;;24.50;78.80;;;;;;5055393;28;20479;-67
2023/08/23 09:16:43;;;;;;;8.37;6.77;;;24.70;78.00;;;;;;5056040;28;20479;-64
2023/08/23 09:19:11;;;;;;;9.90;6.97;;;24.80;76.50;;;;;;5055996;28;20531;-65
2023/08/23 09:21:42;;;;;;;9.27;7.37;;;24.70;75.50;;;;;;5055589;28;20436;-67
2023/08/23 09:24:09;;;;;;;10.20;7.60;;;24.50;75.50;;;;;;5055724;28;20460;-66
2023/08/23 09:26:36;;;;;;;7.60;6.83;;;24.20;76.20;;;;;;5055711;28;20436;-65
2023/08/23 09:29:03;;;;;;;12.57;7.43;;;23.90;77.00;;;;;;5055746;28;20458;-66
2023/08/23 09:31:30;;;;;;;8.77;7.97;;;23.80;77.80;;;;;;5055615;28;20447;-64
2023/08/23 09:33:57;;;;;;;8.33;7.50;;;23.90;77.80;;;;;;5054815;28;20486;-64
2023/08/23 09:36:28;;;;;;;10.13;8.30;;;24.00;77.20;;;;;;5055074;28;20918;-64
2023/08/23 09:38:58;;;;;;;9.40;8.40;;;24.10;76.50;;;;;;5055191;28;20863;-65
2023/08/23 09:41:25;;;;;;;11.33;8.00;;;24.00;76.20;;;;;;5055568;28;20439;-65
2023/08/23 09:43:54;;;;;;;8.07;6.73;;;23.70;76.50;;;;;;5055652;28;20838;-66
2023/08/23 09:46:24;;;;;;;8.60;7.60;;;23.40;77.30;;;;;;5055089;28;20502;-64
2023/08/23 09:48:54;;;;;;;9.40;7.47;;;23.20;77.60;;;;;;5055255;28;20444;-64
2023/08/23 09:51:24;;;;;;;8.37;6.40;;;23.20;78.00;;;;;;5054892;28;20953;-67
2023/08/23 09:53:55;;;;;;;8.23;7.27;;;23.40;77.70;;;;;;5055068;28;20444;-65
2023/08/23 09:56:24;;;;;;;8.63;6.63;;;23.60;77.50;;;;;;5054921;28;20438;-65
2023/08/23 09:58:51;;;;;;;12.30;7.40;;;23.60;76.10;;;;;;5054410;28;20942;-65
2023/08/23 10:01:19;;;;;;;8.03;6.60;;;23.70;75.90;;;;;;5054854;28;20547;-66
2023/08/23 10:03:45;;;;;;;11.47;7.23;;;23.80;75.70;;;;;;5054675;28;20833;-65
2023/08/23 10:06:12;;;;;;;6.20;5.00;;;23.70;75.40;;;;;;5054969;28;20818;-66
2023/08/23 10:08:40;;;;;;;7.00;5.67;;;23.60;75.50;;;;;;5054887;28;20444;-65
2023/08/23 10:11:06;;;;;;;8.00;6.00;;;23.40;74.30;;;;;;5055113;28;20446;-64
2023/08/23 10:13:36;;;;;;;7.77;4.73;;;23.60;74.10;;;;;;5054968;28;20498;-65
2023/08/23 10:16:06;;;;;;;6.70;4.60;;;23.80;73.30;;;;;;5055225;28;20540;-65
2023/08/23 10:18:35;;;;;;;7.53;6.27;;;24.10;72.30;;;;;;5055069;28;20444;-64
2023/08/23 10:21:03;;;;;;;8.30;4.60;;;24.50;70.40;;;;;;5054325;28;20965;-65
2023/08/23 10:23:34;;;;;;;6.97;4.33;;;24.70;68.70;;;;;;5054691;28;20464;-66
2023/08/23 10:26:02;;;;;;;5.87;4.70;;;24.70;67.90;;;;;;5054836;28;20439;-65
2023/08/23 10:28:29;;;;;;;8.00;4.80;;;24.50;67.80;;;;;;5054698;28;20440;-65
2023/08/23 10:31:00;;;;;;;5.17;4.10;;;24.20;68.10;;;;;;5055172;28;20470;-65
2023/08/23 10:33:27;;;;;;;4.27;3.87;;;24.10;68.30;;;;;;5053851;28;20559;-64
2023/08/23 10:35:54;;;;;;;4.47;4.03;;;24.00;68.10;;;;;;5054319;28;20451;-64
2023/08/23 10:38:22;;;;;;;3.77;3.40;;;24.10;67.30;;;;;;5054374;28;20444;-66
2023/08/23 10:40:49;;;;;;;4.70;3.40;;;24.20;66.60;;;;;;5054102;28;20448;-64
2023/08/23 10:43:18;;;;;;;4.83;3.20;;;24.40;65.60;;;;;;5053845;28;20460;-65
2023/08/23 10:45:56;;;;;;;3.87;3.43;;;24.60;64.20;;;;;;5055445;28;20448;-65
2023/08/23 10:48:24;;;;;;;3.70;3.40;;;24.90;62.60;;;;;;5054427;28;20782;-66
2023/08/23 10:50:53;;;;;;;4.20;3.63;;;25.20;61.30;;;;;;5053804;28;20968;-65
2023/08/23 10:53:20;;;;;;;4.63;3.80;;;25.50;61.20;;;;;;5053929;28;20483;-65
2023/08/23 10:55:47;;;;;;;5.87;4.40;;;25.60;59.90;;;;;;5054381;28;20440;-65
2023/08/23 10:58:14;;;;;;;4.90;4.37;;;25.70;59.50;;;;;;5055061;28;20451;-66
2023/08/23 11:00:42;;;;;;;6.73;4.07;;;25.70;59.70;;;;;;5053928;28;20447;-66
2023/08/23 11:03:09;;;;;;;4.80;3.73;;;25.60;59.70;;;;;;5053959;28;20459;-64
2023/08/23 11:05:38;;;;;;;12.83;4.90;;;25.30;59.80;;;;;;5053719;28;20521;-65
2023/08/23 11:08:05;;;;;;;5.23;4.70;;;25.10;60.60;;;;;;5053382;28;20832;-65
2023/08/23 11:10:32;;;;;;;5.00;4.57;;;24.80;61.20;;;;;;5053379;28;20444;-65
2023/08/23 11:13:00;;;;;;;5.47;3.53;;;24.60;61.80;;;;;;5053213;28;20487;-65
2023/08/23 11:15:26;;;;;;;4.30;3.23;;;24.40;62.20;;;;;;5053597;28;20444;-65
2023/08/23 11:17:53;;;;;;;3.70;2.70;;;24.50;62.40;;;;;;5053160;28;20795;-66
2023/08/23 11:20:21;;;;;;;3.40;2.20;;;24.60;61.50;;;;;;5053175;28;20452;-66
2023/08/23 11:22:49;;;;;;;6.20;2.93;;;24.70;60.40;;;;;;5053435;28;20834;-66
2023/08/23 11:25:15;;;;;;;5.43;2.30;;;24.90;59.20;;;;;;5053358;28;20447;-65
2023/08/23 11:27:42;;;;;;;3.37;2.40;;;25.10;58.90;;;;;;5053224;28;20444;-65
2023/08/23 11:30:09;;;;;;;3.17;2.20;;;25.40;58.10;;;;;;5053379;28;20442;-64
2023/08/23 11:32:37;;;;;;;4.70;2.60;;;25.70;57.40;;;;;;5053276;28;20498;-66
2023/08/23 11:35:06;;;;;;;2.87;2.10;;;25.90;57.20;;;;;;5053807;28;20894;-66
2023/08/23 11:37:32;;;;;;;3.17;2.10;;;26.00;56.40;;;;;;5052995;28;20494;-66
2023/08/23 11:40:07;;;;;;;3.87;2.40;;;26.10;55.60;;;;;;5053119;28;20523;-65
2023/08/23 11:42:36;;;;;;;3.60;1.97;;;26.30;55.10;;;;;;5053282;28;20427;-65
2023/08/23 11:45:03;;;;;;;9.70;2.40;;;26.50;54.40;;;;;;5053271;28;20474;-64
2023/08/23 11:47:30;;;;;;;2.40;1.63;;;26.90;53.80;;;;;;5053268;28;20436;-66
2023/08/23 11:49:57;;;;;;;2.53;1.80;;;27.40;52.80;;;;;;5053155;28;20823;-65
2023/08/23 11:52:24;;;;;;;1.80;1.70;;;28.10;51.60;;;;;;5052589;28;20534;-66
2023/08/23 11:54:52;;;;;;;3.60;2.70;;;28.90;50.20;;;;;;5052704;28;20435;-65
2023/08/23 11:57:21;;;;;;;2.83;2.43;;;29.60;48.60;;;;;;5052647;28;20444;-64
2023/08/23 11:59:48;;;;;;;3.97;2.27;;;29.80;47.80;;;;;;5052647;28;20493;-65
2023/08/23 12:02:15;;;;;;;3.43;1.97;;;29.90;47.30;;;;;;5052933;28;20444;-65
2023/08/23 12:04:42;;;;;;;3.57;2.43;;;29.90;46.50;;;;;;5052269;28;20834;-66
2023/08/23 12:07:09;;;;;;;2.43;1.83;;;30.00;45.80;;;;;;5052559;28;20452;-65
2023/08/23 12:09:36;;;;;;;3.60;2.50;;;29.70;45.80;;;;;;5052858;28;20448;-66
2023/08/23 12:12:03;;;;;;;2.47;1.70;;;29.30;46.20;;;;;;5052550;28;20444;-66
2023/08/23 12:14:31;;;;;;;3.23;2.93;;;29.00;46.50;;;;;;5052186;28;20549;-66
2023/08/23 12:16:58;;;;;;;3.37;1.90;;;28.70;46.90;;;;;;5052312;28;20442;-67
2023/08/23 12:19:25;;;;;;;2.77;1.80;;;28.40;47.10;;;;;;5052679;28;20443;-65
2023/08/23 12:21:52;;;;;;;2.83;1.70;;;28.00;47.70;;;;;;5052631;28;20444;-64
2023/08/23 12:24:19;;;;;;;1.70;1.60;;;27.60;48.30;;;;;;5053779;28;20456;-66
2023/08/23 12:26:46;;;;;;;5.13;2.00;;;27.20;49.10;;;;;;5052988;28;20813;-64
2023/08/23 12:29:12;;;;;;;4.73;2.50;;;27.00;50.00;;;;;;5052715;28;20447;-65
2023/08/23 12:31:40;;;;;;;2.40;2.20;;;27.10;50.30;;;;;;5053189;28;20519;-66
2023/08/23 12:34:07;;;;;;;2.67;2.10;;;27.20;50.30;;;;;;5056544;28;20492;-65
2023/08/23 12:36:34;;;;;;;2.13;1.57;;;27.20;50.00;;;;;;5057165;28;20447;-65
2023/08/23 12:39:01;;;;;;;7.03;2.20;;;27.20;50.00;;;;;;5057134;28;20440;-64
2023/08/23 12:41:28;;;;;;;2.37;1.60;;;27.10;49.80;;;;;;5056675;28;20462;-63
2023/08/23 12:43:55;;;;;;;2.57;1.90;;;27.00;49.80;;;;;;5056507;28;20872;-66
2023/08/23 12:46:22;;;;;;;2.60;1.70;;;27.00;49.60;;;;;;5056715;28;20933;-64